sensor_id;sensor_type;location;lat;lon;timestamp;P1;durP1;ratioP1;P2;durP2;ratioP2
42726;SDS011;28372;56.832;60.658;2022-08-05T00:01:30;15.93;;;8.55;;
42726;SDS011;28372;56.832;60.658;2022-08-05T00:04:02;20.00;;;8.63;;
42726;SDS011;28372;56.832;60.658;2022-08-05T00:06:34;21.33;;;9.18;;
42726;SDS011;28372;56.832;60.658;2022-08-05T00:09:02;15.60;;;8.95;;
42726;SDS011;28372;56.832;60.658;2022-08-05T00:11:38;22.35;;;8.95;;
42726;SDS011;28372;56.832;60.658;2022-08-05T00:14:15;18.98;;;8.95;;
42726;SDS011;28372;56.832;60.658;2022-08-05T00:16:44;19.33;;;9.32;;
42726;SDS011;28372;56.832;60.658;2022-08-05T00:19:20;22.17;;;8.50;;
42726;SDS011;28372;56.832;60.658;2022-08-05T00:21:51;17.67;;;9.43;;
42726;SDS011;28372;56.832;60.658;2022-08-05T00:24:19;19.08;;;9.43;;
42726;SDS011;28372;56.832;60.658;2022-08-05T00:26:51;19.20;;;9.40;;
42726;SDS011;28372;56.832;60.658;2022-08-05T00:29:19;20.73;;;9.40;;
42726;SDS011;28372;56.832;60.658;2022-08-05T00:31:51;20.77;;;9.55;;
42726;SDS011;28372;56.832;60.658;2022-08-05T00:34:40;23.55;;;11.20;;
42726;SDS011;28372;56.832;60.658;2022-08-05T00:37:29;18.65;;;10.13;;
42726;SDS011;28372;56.832;60.658;2022-08-05T00:40:19;21.77;;;10.75;;
42726;SDS011;28372;56.832;60.658;2022-08-05T00:42:55;20.85;;;10.50;;
42726;SDS011;28372;56.832;60.658;2022-08-05T00:45:23;24.35;;;10.60;;
42726;SDS011;28372;56.832;60.658;2022-08-05T00:48:08;26.05;;;11.07;;
42726;SDS011;28372;56.832;60.658;2022-08-05T00:50:38;20.77;;;10.13;;
42726;SDS011;28372;56.832;60.658;2022-08-05T00:53:09;23.00;;;10.53;;
42726;SDS011;28372;56.832;60.658;2022-08-05T00:55:57;20.17;;;9.90;;
42726;SDS011;28372;56.832;60.658;2022-08-05T00:58:25;18.15;;;9.80;;
42726;SDS011;28372;56.832;60.658;2022-08-05T01:00:53;25.08;;;11.32;;
42726;SDS011;28372;56.832;60.658;2022-08-05T01:03:21;24.25;;;10.35;;
42726;SDS011;28372;56.832;60.658;2022-08-05T01:05:52;24.38;;;10.82;;
42726;SDS011;28372;56.832;60.658;2022-08-05T01:08:20;23.13;;;12.15;;
42726;SDS011;28372;56.832;60.658;2022-08-05T01:19:01;24.38;;;14.27;;
42726;SDS011;28372;56.832;60.658;2022-08-05T01:30:21;27.67;;;12.55;;
42726;SDS011;28372;56.832;60.658;2022-08-05T01:33:01;23.90;;;11.57;;
42726;SDS011;28372;56.832;60.658;2022-08-05T01:35:35;18.92;;;11.25;;
42726;SDS011;28372;56.832;60.658;2022-08-05T01:38:18;23.08;;;11.02;;
42726;SDS011;28372;56.832;60.658;2022-08-05T01:40:58;24.92;;;10.63;;
42726;SDS011;28372;56.832;60.658;2022-08-05T01:43:27;25.63;;;10.83;;
42726;SDS011;28372;56.832;60.658;2022-08-05T01:45:57;25.17;;;10.48;;
42726;SDS011;28372;56.832;60.658;2022-08-05T01:48:42;25.75;;;10.75;;
42726;SDS011;28372;56.832;60.658;2022-08-05T01:51:16;24.02;;;11.07;;
42726;SDS011;28372;56.832;60.658;2022-08-05T01:53:45;26.25;;;10.85;;
42726;SDS011;28372;56.832;60.658;2022-08-05T01:56:26;22.52;;;11.02;;
42726;SDS011;28372;56.832;60.658;2022-08-05T01:59:20;22.50;;;10.95;;
42726;SDS011;28372;56.832;60.658;2022-08-05T02:01:52;23.20;;;11.70;;
42726;SDS011;28372;56.832;60.658;2022-08-05T02:04:25;23.52;;;11.60;;
42726;SDS011;28372;56.832;60.658;2022-08-05T02:06:55;21.38;;;11.60;;
42726;SDS011;28372;56.832;60.658;2022-08-05T02:09:25;24.80;;;10.80;;
42726;SDS011;28372;56.832;60.658;2022-08-05T02:14:52;23.00;;;10.57;;
42726;SDS011;28372;56.832;60.658;2022-08-05T02:18:04;24.40;;;10.57;;
42726;SDS011;28372;56.832;60.658;2022-08-05T02:20:59;20.77;;;11.13;;
42726;SDS011;28372;56.832;60.658;2022-08-05T02:23:39;22.37;;;10.63;;
42726;SDS011;28372;56.832;60.658;2022-08-05T02:26:09;22.25;;;10.85;;
42726;SDS011;28372;56.832;60.658;2022-08-05T02:28:42;21.88;;;10.60;;
42726;SDS011;28372;56.832;60.658;2022-08-05T02:31:14;21.95;;;11.00;;
42726;SDS011;28372;56.832;60.658;2022-08-05T02:33:49;21.42;;;10.20;;
42726;SDS011;28372;56.832;60.658;2022-08-05T02:36:24;23.17;;;10.48;;
42726;SDS011;28372;56.832;60.658;2022-08-05T02:38:57;20.05;;;10.07;;
42726;SDS011;28372;56.832;60.658;2022-08-05T02:41:27;21.60;;;11.18;;
42726;SDS011;28372;56.832;60.658;2022-08-05T02:44:18;22.50;;;10.60;;
42726;SDS011;28372;56.832;60.658;2022-08-05T02:46:50;20.77;;;10.27;;
42726;SDS011;28372;56.832;60.658;2022-08-05T02:49:30;22.50;;;10.07;;
42726;SDS011;28372;56.832;60.658;2022-08-05T02:52:04;24.83;;;10.57;;
42726;SDS011;28372;56.832;60.658;2022-08-05T02:54:56;19.70;;;10.05;;
42726;SDS011;28372;56.832;60.658;2022-08-05T02:57:30;21.45;;;10.07;;
42726;SDS011;28372;56.832;60.658;2022-08-05T03:00:21;24.45;;;9.60;;
42726;SDS011;28372;56.832;60.658;2022-08-05T03:02:51;19.98;;;9.55;;
42726;SDS011;28372;56.832;60.658;2022-08-05T03:05:19;20.20;;;9.57;;
42726;SDS011;28372;56.832;60.658;2022-08-05T03:08:08;17.98;;;9.32;;
42726;SDS011;28372;56.832;60.658;2022-08-05T03:10:42;17.85;;;8.82;;
42726;SDS011;28372;56.832;60.658;2022-08-05T03:16:18;17.80;;;7.55;;
42726;SDS011;28372;56.832;60.658;2022-08-05T03:18:46;18.33;;;7.25;;
42726;SDS011;28372;56.832;60.658;2022-08-05T03:21:14;14.38;;;7.28;;
42726;SDS011;28372;56.832;60.658;2022-08-05T03:23:42;21.38;;;7.88;;
42726;SDS011;28372;56.832;60.658;2022-08-05T03:26:11;19.10;;;7.47;;
42726;SDS011;28372;56.832;60.658;2022-08-05T03:28:58;17.25;;;7.15;;
42726;SDS011;28372;56.832;60.658;2022-08-05T03:31:26;25.50;;;8.00;;
42726;SDS011;28372;56.832;60.658;2022-08-05T03:34:14;18.58;;;7.97;;
42726;SDS011;28372;56.832;60.658;2022-08-05T03:36:42;39.90;;;8.90;;
42726;SDS011;28372;56.832;60.658;2022-08-05T03:39:10;62.15;;;9.98;;
42726;SDS011;28372;56.832;60.658;2022-08-05T03:41:46;29.38;;;8.63;;
42726;SDS011;28372;56.832;60.658;2022-08-05T03:44:18;23.33;;;7.38;;
42726;SDS011;28372;56.832;60.658;2022-08-05T03:46:45;16.35;;;7.40;;
42726;SDS011;28372;56.832;60.658;2022-08-05T03:49:14;19.35;;;7.00;;
42726;SDS011;28372;56.832;60.658;2022-08-05T03:51:44;19.35;;;7.03;;
42726;SDS011;28372;56.832;60.658;2022-08-05T03:57:47;18.75;;;7.55;;
42726;SDS011;28372;56.832;60.658;2022-08-05T04:00:19;20.05;;;7.38;;
42726;SDS011;28372;56.832;60.658;2022-08-05T04:03:00;16.42;;;6.80;;
42726;SDS011;28372;56.832;60.658;2022-08-05T04:05:30;15.57;;;6.40;;
42726;SDS011;28372;56.832;60.658;2022-08-05T04:08:01;18.30;;;6.88;;
42726;SDS011;28372;56.832;60.658;2022-08-05T04:10:41;15.65;;;6.18;;
42726;SDS011;28372;56.832;60.658;2022-08-05T04:13:10;13.18;;;5.78;;
42726;SDS011;28372;56.832;60.658;2022-08-05T04:15:38;10.13;;;5.53;;
42726;SDS011;28372;56.832;60.658;2022-08-05T04:18:26;14.93;;;5.90;;
42726;SDS011;28372;56.832;60.658;2022-08-05T04:20:55;15.57;;;5.32;;
42726;SDS011;28372;56.832;60.658;2022-08-05T04:23:24;20.55;;;5.80;;
42726;SDS011;28372;56.832;60.658;2022-08-05T04:26:13;12.93;;;5.22;;
42726;SDS011;28372;56.832;60.658;2022-08-05T04:28:43;15.13;;;5.03;;
42726;SDS011;28372;56.832;60.658;2022-08-05T04:31:20;9.77;;;5.00;;
42726;SDS011;28372;56.832;60.658;2022-08-05T04:33:53;14.80;;;5.05;;
42726;SDS011;28372;56.832;60.658;2022-08-05T04:36:40;15.10;;;5.28;;
42726;SDS011;28372;56.832;60.658;2022-08-05T04:39:15;11.65;;;4.38;;
42726;SDS011;28372;56.832;60.658;2022-08-05T04:41:44;19.33;;;4.93;;
42726;SDS011;28372;56.832;60.658;2022-08-05T04:44:14;10.95;;;4.40;;
42726;SDS011;28372;56.832;60.658;2022-08-05T04:46:55;12.43;;;3.97;;
42726;SDS011;28372;56.832;60.658;2022-08-05T04:49:25;10.40;;;4.22;;
42726;SDS011;28372;56.832;60.658;2022-08-05T04:52:13;10.55;;;3.95;;
42726;SDS011;28372;56.832;60.658;2022-08-05T04:54:41;11.68;;;4.20;;
42726;SDS011;28372;56.832;60.658;2022-08-05T04:57:08;10.25;;;4.00;;
42726;SDS011;28372;56.832;60.658;2022-08-05T04:59:36;12.88;;;4.55;;
42726;SDS011;28372;56.832;60.658;2022-08-05T05:02:06;7.95;;;4.03;;
42726;SDS011;28372;56.832;60.658;2022-08-05T05:04:54;9.55;;;4.10;;
42726;SDS011;28372;56.832;60.658;2022-08-05T05:07:29;13.23;;;3.65;;
42726;SDS011;28372;56.832;60.658;2022-08-05T05:12:32;13.38;;;3.70;;
42726;SDS011;28372;56.832;60.658;2022-08-05T05:15:03;7.88;;;3.47;;
42726;SDS011;28372;56.832;60.658;2022-08-05T05:17:40;8.85;;;3.70;;
42726;SDS011;28372;56.832;60.658;2022-08-05T05:20:23;14.10;;;4.00;;
42726;SDS011;28372;56.832;60.658;2022-08-05T05:22:55;12.57;;;4.65;;
42726;SDS011;28372;56.832;60.658;2022-08-05T05:25:24;15.23;;;4.32;;
42726;SDS011;28372;56.832;60.658;2022-08-05T05:28:07;13.77;;;4.57;;
42726;SDS011;28372;56.832;60.658;2022-08-05T05:30:35;14.48;;;4.35;;
42726;SDS011;28372;56.832;60.658;2022-08-05T05:33:04;11.57;;;4.05;;
42726;SDS011;28372;56.832;60.658;2022-08-05T05:35:46;9.00;;;3.05;;
42726;SDS011;28372;56.832;60.658;2022-08-05T05:38:14;11.80;;;3.10;;
42726;SDS011;28372;56.832;60.658;2022-08-05T05:40:54;10.05;;;3.33;;
42726;SDS011;28372;56.832;60.658;2022-08-05T05:43:23;8.00;;;3.55;;
42726;SDS011;28372;56.832;60.658;2022-08-05T05:46:10;9.10;;;3.20;;
42726;SDS011;28372;56.832;60.658;2022-08-05T05:48:42;10.43;;;3.08;;
42726;SDS011;28372;56.832;60.658;2022-08-05T05:51:16;8.40;;;2.60;;
42726;SDS011;28372;56.832;60.658;2022-08-05T05:53:48;7.40;;;2.30;;
42726;SDS011;28372;56.832;60.658;2022-08-05T05:56:30;8.95;;;2.55;;
42726;SDS011;28372;56.832;60.658;2022-08-05T05:59:04;7.30;;;2.20;;
42726;SDS011;28372;56.832;60.658;2022-08-05T06:01:34;6.78;;;2.08;;
42726;SDS011;28372;56.832;60.658;2022-08-05T06:04:09;6.15;;;2.00;;
42726;SDS011;28372;56.832;60.658;2022-08-05T06:06:41;10.82;;;2.20;;
42726;SDS011;28372;56.832;60.658;2022-08-05T06:09:15;9.85;;;2.42;;
42726;SDS011;28372;56.832;60.658;2022-08-05T06:11:53;8.73;;;2.38;;
42726;SDS011;28372;56.832;60.658;2022-08-05T06:14:27;11.75;;;2.80;;
42726;SDS011;28372;56.832;60.658;2022-08-05T06:16:54;7.85;;;2.40;;
42726;SDS011;28372;56.832;60.658;2022-08-05T06:19:23;6.53;;;2.17;;
42726;SDS011;28372;56.832;60.658;2022-08-05T06:21:59;6.15;;;2.20;;
42726;SDS011;28372;56.832;60.658;2022-08-05T06:24:27;6.50;;;2.10;;
42726;SDS011;28372;56.832;60.658;2022-08-05T06:26:54;6.60;;;1.95;;
42726;SDS011;28372;56.832;60.658;2022-08-05T06:29:22;9.73;;;2.20;;
42726;SDS011;28372;56.832;60.658;2022-08-05T06:32:10;5.15;;;2.10;;
42726;SDS011;28372;56.832;60.658;2022-08-05T06:34:52;6.07;;;1.85;;
42726;SDS011;28372;56.832;60.658;2022-08-05T06:37:23;8.25;;;2.10;;
42726;SDS011;28372;56.832;60.658;2022-08-05T06:40:14;6.18;;;2.10;;
42726;SDS011;28372;56.832;60.658;2022-08-05T06:42:50;6.25;;;2.30;;
42726;SDS011;28372;56.832;60.658;2022-08-05T06:45:19;8.55;;;2.15;;
42726;SDS011;28372;56.832;60.658;2022-08-05T06:48:07;6.30;;;2.20;;
42726;SDS011;28372;56.832;60.658;2022-08-05T06:50:55;6.47;;;2.17;;
42726;SDS011;28372;56.832;60.658;2022-08-05T06:53:23;5.07;;;1.60;;
42726;SDS011;28372;56.832;60.658;2022-08-05T06:55:58;4.95;;;1.48;;
42726;SDS011;28372;56.832;60.658;2022-08-05T07:01:03;4.53;;;1.30;;
42726;SDS011;28372;56.832;60.658;2022-08-05T07:03:32;3.67;;;1.50;;
42726;SDS011;28372;56.832;60.658;2022-08-05T07:06:01;4.40;;;1.50;;
42726;SDS011;28372;56.832;60.658;2022-08-05T07:08:43;3.65;;;1.35;;
42726;SDS011;28372;56.832;60.658;2022-08-05T07:11:17;4.10;;;1.50;;
42726;SDS011;28372;56.832;60.658;2022-08-05T07:13:48;3.35;;;1.48;;
42726;SDS011;28372;56.832;60.658;2022-08-05T07:16:46;3.50;;;1.35;;
42726;SDS011;28372;56.832;60.658;2022-08-05T07:19:37;4.43;;;1.33;;
42726;SDS011;28372;56.832;60.658;2022-08-05T07:22:25;4.63;;;1.80;;
42726;SDS011;28372;56.832;60.658;2022-08-05T07:24:56;3.90;;;1.60;;
42726;SDS011;28372;56.832;60.658;2022-08-05T07:27:45;5.43;;;1.70;;
42726;SDS011;28372;56.832;60.658;2022-08-05T07:30:25;3.20;;;1.40;;
42726;SDS011;28372;56.832;60.658;2022-08-05T07:32:59;5.70;;;1.70;;
42726;SDS011;28372;56.832;60.658;2022-08-05T07:35:39;3.58;;;1.30;;
42726;SDS011;28372;56.832;60.658;2022-08-05T07:38:26;6.28;;;1.50;;
42726;SDS011;28372;56.832;60.658;2022-08-05T07:41:05;2.63;;;1.40;;
42726;SDS011;28372;56.832;60.658;2022-08-05T07:43:54;2.95;;;1.25;;
42726;SDS011;28372;56.832;60.658;2022-08-05T07:46:24;2.28;;;1.30;;
42726;SDS011;28372;56.832;60.658;2022-08-05T07:48:53;5.10;;;1.70;;
42726;SDS011;28372;56.832;60.658;2022-08-05T07:51:31;2.72;;;1.30;;
42726;SDS011;28372;56.832;60.658;2022-08-05T07:54:06;5.05;;;1.80;;
42726;SDS011;28372;56.832;60.658;2022-08-05T07:56:36;5.80;;;1.88;;
42726;SDS011;28372;56.832;60.658;2022-08-05T07:59:24;3.53;;;1.75;;
42726;SDS011;28372;56.832;60.658;2022-08-05T08:02:06;4.43;;;1.67;;
42726;SDS011;28372;56.832;60.658;2022-08-05T08:04:45;4.95;;;1.42;;
42726;SDS011;28372;56.832;60.658;2022-08-05T08:07:18;2.80;;;1.38;;
42726;SDS011;28372;56.832;60.658;2022-08-05T08:09:49;5.30;;;1.80;;
42726;SDS011;28372;56.832;60.658;2022-08-05T08:12:19;7.35;;;1.95;;
42726;SDS011;28372;56.832;60.658;2022-08-05T08:15:03;3.88;;;1.77;;
42726;SDS011;28372;56.832;60.658;2022-08-05T08:17:44;2.80;;;1.60;;
42726;SDS011;28372;56.832;60.658;2022-08-05T08:20:22;2.08;;;1.20;;
42726;SDS011;28372;56.832;60.658;2022-08-05T08:23:10;2.22;;;1.30;;
42726;SDS011;28372;56.832;60.658;2022-08-05T08:25:58;2.75;;;1.40;;
42726;SDS011;28372;56.832;60.658;2022-08-05T08:28:30;2.75;;;1.50;;
42726;SDS011;28372;56.832;60.658;2022-08-05T08:31:08;2.58;;;1.50;;
42726;SDS011;28372;56.832;60.658;2022-08-05T08:33:42;2.80;;;1.52;;
42726;SDS011;28372;56.832;60.658;2022-08-05T08:36:09;4.63;;;1.67;;
42726;SDS011;28372;56.832;60.658;2022-08-05T08:38:57;3.50;;;1.60;;
42726;SDS011;28372;56.832;60.658;2022-08-05T08:41:28;2.08;;;1.50;;
42726;SDS011;28372;56.832;60.658;2022-08-05T08:44:19;4.15;;;1.70;;
42726;SDS011;28372;56.832;60.658;2022-08-05T08:47:09;5.05;;;1.70;;
42726;SDS011;28372;56.832;60.658;2022-08-05T08:49:58;4.90;;;1.60;;
42726;SDS011;28372;56.832;60.658;2022-08-05T08:52:49;4.68;;;1.60;;
42726;SDS011;28372;56.832;60.658;2022-08-05T08:55:21;4.38;;;1.90;;
42726;SDS011;28372;56.832;60.658;2022-08-05T08:58:09;3.17;;;1.77;;
42726;SDS011;28372;56.832;60.658;2022-08-05T09:00:39;4.03;;;1.80;;
42726;SDS011;28372;56.832;60.658;2022-08-05T09:03:08;2.83;;;1.60;;
42726;SDS011;28372;56.832;60.658;2022-08-05T09:05:46;4.13;;;1.63;;
42726;SDS011;28372;56.832;60.658;2022-08-05T09:08:34;5.38;;;1.63;;
42726;SDS011;28372;56.832;60.658;2022-08-05T09:13:37;3.50;;;1.42;;
42726;SDS011;28372;56.832;60.658;2022-08-05T09:16:26;5.35;;;1.40;;
42726;SDS011;28372;56.832;60.658;2022-08-05T09:18:53;5.70;;;1.55;;
42726;SDS011;28372;56.832;60.658;2022-08-05T09:21:21;3.75;;;1.45;;
42726;SDS011;28372;56.832;60.658;2022-08-05T09:24:09;2.80;;;1.42;;
42726;SDS011;28372;56.832;60.658;2022-08-05T09:26:41;5.18;;;1.40;;
42726;SDS011;28372;56.832;60.658;2022-08-05T09:29:12;4.22;;;1.33;;
42726;SDS011;28372;56.832;60.658;2022-08-05T09:31:59;4.85;;;1.55;;
42726;SDS011;28372;56.832;60.658;2022-08-05T09:34:52;6.88;;;1.70;;
42726;SDS011;28372;56.832;60.658;2022-08-05T09:37:21;5.40;;;1.45;;
42726;SDS011;28372;56.832;60.658;2022-08-05T09:40:27;2.33;;;1.17;;
42726;SDS011;28372;56.832;60.658;2022-08-05T09:42:58;2.85;;;1.40;;
42726;SDS011;28372;56.832;60.658;2022-08-05T09:45:34;2.83;;;1.33;;
42726;SDS011;28372;56.832;60.658;2022-08-05T09:48:29;3.38;;;1.23;;
42726;SDS011;28372;56.832;60.658;2022-08-05T09:51:02;4.65;;;1.50;;
42726;SDS011;28372;56.832;60.658;2022-08-05T09:53:48;2.47;;;1.50;;
42726;SDS011;28372;56.832;60.658;2022-08-05T09:56:25;4.47;;;2.72;;
42726;SDS011;28372;56.832;60.658;2022-08-05T09:59:00;4.22;;;1.80;;
42726;SDS011;28372;56.832;60.658;2022-08-05T10:01:43;4.70;;;2.00;;
42726;SDS011;28372;56.832;60.658;2022-08-05T10:04:13;4.65;;;1.90;;
42726;SDS011;28372;56.832;60.658;2022-08-05T10:06:53;5.00;;;2.13;;
42726;SDS011;28372;56.832;60.658;2022-08-05T10:09:25;5.63;;;2.03;;
42726;SDS011;28372;56.832;60.658;2022-08-05T10:12:08;6.35;;;2.05;;
42726;SDS011;28372;56.832;60.658;2022-08-05T10:15:16;5.22;;;1.95;;
42726;SDS011;28372;56.832;60.658;2022-08-05T10:18:06;5.15;;;2.08;;
42726;SDS011;28372;56.832;60.658;2022-08-05T10:20:45;5.40;;;2.13;;
42726;SDS011;28372;56.832;60.658;2022-08-05T10:23:18;3.55;;;2.00;;
42726;SDS011;28372;56.832;60.658;2022-08-05T10:26:09;2.70;;;1.88;;
42726;SDS011;28372;56.832;60.658;2022-08-05T10:28:41;4.15;;;1.85;;
42726;SDS011;28372;56.832;60.658;2022-08-05T10:31:15;4.32;;;1.73;;
42726;SDS011;28372;56.832;60.658;2022-08-05T10:34:03;4.40;;;1.80;;
42726;SDS011;28372;56.832;60.658;2022-08-05T10:36:34;2.78;;;1.65;;
42726;SDS011;28372;56.832;60.658;2022-08-05T10:39:08;4.00;;;2.05;;
42726;SDS011;28372;56.832;60.658;2022-08-05T10:42:12;5.80;;;2.28;;
42726;SDS011;28372;56.832;60.658;2022-08-05T10:44:58;4.15;;;2.17;;
42726;SDS011;28372;56.832;60.658;2022-08-05T10:47:32;6.60;;;2.50;;
42726;SDS011;28372;56.832;60.658;2022-08-05T10:50:06;3.67;;;1.80;;
42726;SDS011;28372;56.832;60.658;2022-08-05T10:53:01;4.55;;;2.10;;
42726;SDS011;28372;56.832;60.658;2022-08-05T10:55:29;3.17;;;2.03;;
42726;SDS011;28372;56.832;60.658;2022-08-05T10:58:18;7.28;;;2.35;;
42726;SDS011;28372;56.832;60.658;2022-08-05T11:00:46;4.95;;;2.20;;
42726;SDS011;28372;56.832;60.658;2022-08-05T11:03:28;7.22;;;2.40;;
42726;SDS011;28372;56.832;60.658;2022-08-05T11:06:03;10.07;;;2.95;;
42726;SDS011;28372;56.832;60.658;2022-08-05T11:11:43;5.30;;;2.53;;
42726;SDS011;28372;56.832;60.658;2022-08-05T11:26:29;6.32;;;2.30;;
42726;SDS011;28372;56.832;60.658;2022-08-05T11:29:00;4.90;;;2.15;;
42726;SDS011;28372;56.832;60.658;2022-08-05T11:31:40;8.20;;;3.05;;
42726;SDS011;28372;56.832;60.658;2022-08-05T11:34:36;8.02;;;3.40;;
42726;SDS011;28372;56.832;60.658;2022-08-05T11:46:52;3.97;;;2.50;;
42726;SDS011;28372;56.832;60.658;2022-08-05T11:49:40;6.53;;;2.85;;
42726;SDS011;28372;56.832;60.658;2022-08-05T11:52:26;6.47;;;3.85;;
42726;SDS011;28372;56.832;60.658;2022-08-05T11:54:57;5.43;;;2.60;;
42726;SDS011;28372;56.832;60.658;2022-08-05T11:57:33;6.75;;;3.47;;
42726;SDS011;28372;56.832;60.658;2022-08-05T12:00:27;6.38;;;3.50;;
42726;SDS011;28372;56.832;60.658;2022-08-05T12:02:56;5.38;;;2.63;;
42726;SDS011;28372;56.832;60.658;2022-08-05T12:05:25;8.45;;;2.97;;
42726;SDS011;28372;56.832;60.658;2022-08-05T12:08:01;5.60;;;2.65;;
42726;SDS011;28372;56.832;60.658;2022-08-05T12:10:36;6.75;;;2.63;;
42726;SDS011;28372;56.832;60.658;2022-08-05T12:13:15;4.65;;;2.60;;
42726;SDS011;28372;56.832;60.658;2022-08-05T12:16:06;4.90;;;2.30;;
42726;SDS011;28372;56.832;60.658;2022-08-05T12:18:41;7.97;;;2.60;;
42726;SDS011;28372;56.832;60.658;2022-08-05T12:24:09;8.15;;;3.50;;
42726;SDS011;28372;56.832;60.658;2022-08-05T12:26:44;6.03;;;3.00;;
42726;SDS011;28372;56.832;60.658;2022-08-05T12:29:21;6.90;;;2.80;;
42726;SDS011;28372;56.832;60.658;2022-08-05T12:31:55;5.25;;;3.25;;
42726;SDS011;28372;56.832;60.658;2022-08-05T12:34:29;5.82;;;3.60;;
42726;SDS011;28372;56.832;60.658;2022-08-05T12:37:05;5.50;;;2.70;;
42726;SDS011;28372;56.832;60.658;2022-08-05T12:39:43;5.03;;;2.88;;
42726;SDS011;28372;56.832;60.658;2022-08-05T12:42:18;7.97;;;2.80;;
42726;SDS011;28372;56.832;60.658;2022-08-05T12:44:47;7.20;;;2.50;;
42726;SDS011;28372;56.832;60.658;2022-08-05T12:47:28;5.43;;;2.65;;
42726;SDS011;28372;56.832;60.658;2022-08-05T12:49:57;6.13;;;2.80;;
42726;SDS011;28372;56.832;60.658;2022-08-05T12:52:35;7.85;;;2.90;;
42726;SDS011;28372;56.832;60.658;2022-08-05T12:55:29;6.15;;;2.42;;
42726;SDS011;28372;56.832;60.658;2022-08-05T12:58:00;4.30;;;2.63;;
42726;SDS011;28372;56.832;60.658;2022-08-05T13:00:48;4.32;;;2.50;;
42726;SDS011;28372;56.832;60.658;2022-08-05T13:03:37;6.25;;;2.28;;
42726;SDS011;28372;56.832;60.658;2022-08-05T13:06:13;6.88;;;2.20;;
42726;SDS011;28372;56.832;60.658;2022-08-05T13:08:46;5.95;;;2.25;;
42726;SDS011;28372;56.832;60.658;2022-08-05T13:11:22;4.35;;;1.90;;
42726;SDS011;28372;56.832;60.658;2022-08-05T13:14:18;5.10;;;2.10;;
42726;SDS011;28372;56.832;60.658;2022-08-05T13:17:05;6.45;;;2.38;;
42726;SDS011;28372;56.832;60.658;2022-08-05T13:19:35;6.05;;;2.42;;
42726;SDS011;28372;56.832;60.658;2022-08-05T13:22:19;6.22;;;2.60;;
42726;SDS011;28372;56.832;60.658;2022-08-05T13:24:59;7.72;;;3.15;;
42726;SDS011;28372;56.832;60.658;2022-08-05T13:27:41;8.18;;;2.80;;
42726;SDS011;28372;56.832;60.658;2022-08-05T13:30:17;6.13;;;2.78;;
42726;SDS011;28372;56.832;60.658;2022-08-05T13:33:02;6.35;;;2.80;;
42726;SDS011;28372;56.832;60.658;2022-08-05T13:35:30;4.80;;;2.63;;
42726;SDS011;28372;56.832;60.658;2022-08-05T13:38:17;7.57;;;2.97;;
42726;SDS011;28372;56.832;60.658;2022-08-05T13:43:28;6.32;;;3.75;;
42726;SDS011;28372;56.832;60.658;2022-08-05T13:46:15;7.43;;;4.00;;
42726;SDS011;28372;56.832;60.658;2022-08-05T13:49:03;5.47;;;2.55;;
42726;SDS011;28372;56.832;60.658;2022-08-05T13:51:37;12.25;;;2.90;;
42726;SDS011;28372;56.832;60.658;2022-08-05T13:54:10;4.22;;;2.80;;
42726;SDS011;28372;56.832;60.658;2022-08-05T13:56:41;7.40;;;2.75;;
42726;SDS011;28372;56.832;60.658;2022-08-05T13:59:21;8.90;;;3.10;;
42726;SDS011;28372;56.832;60.658;2022-08-05T14:01:51;7.30;;;3.20;;
42726;SDS011;28372;56.832;60.658;2022-08-05T14:04:29;7.53;;;2.88;;
42726;SDS011;28372;56.832;60.658;2022-08-05T14:07:18;9.32;;;2.78;;
42726;SDS011;28372;56.832;60.658;2022-08-05T14:10:13;5.32;;;2.92;;
42726;SDS011;28372;56.832;60.658;2022-08-05T14:12:45;5.07;;;2.85;;
42726;SDS011;28372;56.832;60.658;2022-08-05T14:15:14;4.53;;;2.78;;
42726;SDS011;28372;56.832;60.658;2022-08-05T14:18:03;5.72;;;3.20;;
42726;SDS011;28372;56.832;60.658;2022-08-05T14:20:31;6.25;;;3.00;;
42726;SDS011;28372;56.832;60.658;2022-08-05T14:22:58;6.90;;;3.30;;
42726;SDS011;28372;56.832;60.658;2022-08-05T14:25:31;4.72;;;3.20;;
42726;SDS011;28372;56.832;60.658;2022-08-05T14:27:58;8.75;;;3.33;;
42726;SDS011;28372;56.832;60.658;2022-08-05T14:30:26;7.50;;;3.72;;
42726;SDS011;28372;56.832;60.658;2022-08-05T14:32:55;5.85;;;3.13;;
42726;SDS011;28372;56.832;60.658;2022-08-05T14:35:23;7.30;;;3.80;;
42726;SDS011;28372;56.832;60.658;2022-08-05T14:38:11;5.60;;;3.50;;
42726;SDS011;28372;56.832;60.658;2022-08-05T14:40:58;6.75;;;3.30;;
42726;SDS011;28372;56.832;60.658;2022-08-05T14:43:31;6.38;;;3.85;;
42726;SDS011;28372;56.832;60.658;2022-08-05T14:46:19;7.32;;;3.92;;
42726;SDS011;28372;56.832;60.658;2022-08-05T14:48:46;7.68;;;3.70;;
42726;SDS011;28372;56.832;60.658;2022-08-05T14:51:16;5.50;;;3.75;;
42726;SDS011;28372;56.832;60.658;2022-08-05T14:53:45;7.05;;;3.92;;
42726;SDS011;28372;56.832;60.658;2022-08-05T14:56:35;8.63;;;3.80;;
42726;SDS011;28372;56.832;60.658;2022-08-05T14:59:09;8.23;;;4.78;;
42726;SDS011;28372;56.832;60.658;2022-08-05T15:01:38;6.25;;;4.50;;
42726;SDS011;28372;56.832;60.658;2022-08-05T15:04:19;11.35;;;3.83;;
42726;SDS011;28372;56.832;60.658;2022-08-05T15:06:48;7.70;;;3.75;;
42726;SDS011;28372;56.832;60.658;2022-08-05T15:09:19;7.85;;;4.10;;
42726;SDS011;28372;56.832;60.658;2022-08-05T15:12:08;6.07;;;3.70;;
42726;SDS011;28372;56.832;60.658;2022-08-05T15:14:43;5.28;;;3.40;;
42726;SDS011;28372;56.832;60.658;2022-08-05T15:17:19;7.43;;;3.55;;
42726;SDS011;28372;56.832;60.658;2022-08-05T15:20:08;6.75;;;3.47;;
42726;SDS011;28372;56.832;60.658;2022-08-05T15:22:45;12.13;;;5.43;;
42726;SDS011;28372;56.832;60.658;2022-08-05T15:25:23;5.60;;;3.90;;
42726;SDS011;28372;56.832;60.658;2022-08-05T15:28:12;7.18;;;3.65;;
42726;SDS011;28372;56.832;60.658;2022-08-05T15:30:42;8.60;;;4.90;;
42726;SDS011;28372;56.832;60.658;2022-08-05T15:33:12;10.05;;;4.63;;
42726;SDS011;28372;56.832;60.658;2022-08-05T15:36:01;7.90;;;3.80;;
42726;SDS011;28372;56.832;60.658;2022-08-05T15:38:31;7.47;;;3.90;;
42726;SDS011;28372;56.832;60.658;2022-08-05T15:41:07;8.73;;;3.55;;
42726;SDS011;28372;56.832;60.658;2022-08-05T15:43:49;7.15;;;3.75;;
42726;SDS011;28372;56.832;60.658;2022-08-05T15:46:18;8.77;;;4.35;;
42726;SDS011;28372;56.832;60.658;2022-08-05T15:48:50;8.05;;;4.22;;
42726;SDS011;28372;56.832;60.658;2022-08-05T15:51:35;5.68;;;3.70;;
42726;SDS011;28372;56.832;60.658;2022-08-05T15:54:22;6.78;;;3.92;;
42726;SDS011;28372;56.832;60.658;2022-08-05T15:57:03;7.40;;;4.20;;
42726;SDS011;28372;56.832;60.658;2022-08-05T15:59:34;9.70;;;3.33;;
42726;SDS011;28372;56.832;60.658;2022-08-05T16:02:04;6.13;;;3.67;;
42726;SDS011;28372;56.832;60.658;2022-08-05T16:04:40;11.32;;;4.63;;
42726;SDS011;28372;56.832;60.658;2022-08-05T16:07:09;8.60;;;4.10;;
42726;SDS011;28372;56.832;60.658;2022-08-05T16:09:39;7.03;;;3.97;;
42726;SDS011;28372;56.832;60.658;2022-08-05T16:12:07;8.18;;;3.90;;
42726;SDS011;28372;56.832;60.658;2022-08-05T16:14:37;9.18;;;4.60;;
42726;SDS011;28372;56.832;60.658;2022-08-05T16:17:05;9.73;;;3.97;;
42726;SDS011;28372;56.832;60.658;2022-08-05T16:19:35;8.65;;;3.92;;
42726;SDS011;28372;56.832;60.658;2022-08-05T16:22:22;8.50;;;4.00;;
42726;SDS011;28372;56.832;60.658;2022-08-05T16:25:00;6.35;;;3.92;;
42726;SDS011;28372;56.832;60.658;2022-08-05T16:27:37;6.72;;;3.80;;
42726;SDS011;28372;56.832;60.658;2022-08-05T16:30:25;7.72;;;4.40;;